Time;durP1;ratioP1;P1;durP2;ratioP2;P2;SDS_P1;SDS_P2;PMS_P1;PMS_P2;Temp;Humidity;BMP_temperature;BMP_pressure;BME280_temperature;BME280_humidity;BME280_pressure;Samples;Min_cycle;Max_cycle;Signal;HPM_P1;HPM_P2
2023/06/23 00:00:12;;;;;;;33.75;14.70;;;;;;;;;;2515471;23;20014;-71
2023/06/23 00:01:33;;;;;;;40.67;15.73;;;;;;;;;;2511964;23;20018;-72
2023/06/23 00:02:54;;;;;;;36.65;15.95;;;;;;;;;;2512091;23;20074;-74
2023/06/23 00:04:15;;;;;;;36.05;15.38;;;;;;;;;;2507467;23;20019;-71
2023/06/23 00:05:37;;;;;;;31.98;15.18;;;;;;;;;;2512143;23;20670;-72
2023/06/23 00:07:00;;;;;;;38.10;16.55;;;;;;;;;;2511920;23;20014;-72
2023/06/23 00:08:21;;;;;;;33.42;15.18;;;;;;;;;;2513200;23;20085;-71
2023/06/23 00:09:43;;;;;;;27.13;13.07;;;;;;;;;;2514661;23;20015;-71
2023/06/23 00:11:07;;;;;;;23.05;11.98;;;;;;;;;;2519183;23;20026;-71
2023/06/23 00:12:28;;;;;;;20.48;11.57;;;;;;;;;;2517197;23;20448;-73
2023/06/23 00:13:49;;;;;;;20.17;10.65;;;;;;;;;;2518828;23;20014;-74
2023/06/23 00:15:11;;;;;;;18.58;11.68;;;;;;;;;;2518971;23;20198;-71
2023/06/23 00:16:32;;;;;;;;;;;;;;;;;;2516855;23;20021;-74
2023/06/23 00:17:53;;;;;;;18.02;10.05;;;;;;;;;;2519238;23;19901;-72
2023/06/23 00:19:14;;;;;;;18.33;11.20;;;;;;;;;;2519142;23;20006;-73
2023/06/23 00:20:36;;;;;;;18.58;10.73;;;;;;;;;;2519197;23;20014;-73
2023/06/23 00:21:57;;;;;;;39.35;15.88;;;;;;;;;;2515573;23;20448;-73
2023/06/23 00:23:18;;;;;;;17.05;10.48;;;;;;;;;;2518640;23;20353;-73
2023/06/23 00:24:40;;;;;;;21.42;11.38;;;;;;;;;;2518532;23;20014;-73
2023/06/23 00:26:03;;;;;;;19.25;11.02;;;;;;;;;;2517337;23;20022;-74
2023/06/23 00:27:24;;;;;;;16.33;11.32;;;;;;;;;;2519074;23;20017;-74
2023/06/23 00:28:45;;;;;;;17.52;11.10;;;;;;;;;;2521384;23;20010;-74
2023/06/23 00:30:06;;;;;;;17.60;11.52;;;;;;;;;;2518277;23;20018;-74
2023/06/23 00:31:27;;;;;;;22.83;11.23;;;;;;;;;;2518800;23;20018;-72
2023/06/23 00:32:48;;;;;;;24.73;11.70;;;;;;;;;;2512576;23;20007;-73
2023/06/23 00:34:09;;;;;;;20.85;10.70;;;;;;;;;;2518815;23;20018;-74
2023/06/23 00:35:30;;;;;;;17.40;10.93;;;;;;;;;;2513952;23;20487;-73
2023/06/23 00:36:51;;;;;;;19.92;12.10;;;;;;;;;;2512696;23;20010;-72
2023/06/23 00:38:13;;;;;;;20.65;11.85;;;;;;;;;;2512353;23;20010;-75
2023/06/23 00:39:33;;;;;;;25.63;12.85;;;;;;;;;;2518372;23;20011;-73
2023/06/23 00:40:54;;;;;;;21.48;12.65;;;;;;;;;;2518175;23;20010;-72
2023/06/23 00:42:15;;;;;;;22.48;12.60;;;;;;;;;;2517413;23;20018;-73
2023/06/23 00:43:36;;;;;;;17.88;11.43;;;;;;;;;;2520453;23;20432;-74
2023/06/23 00:44:57;;;;;;;15.70;9.85;;;;;;;;;;2520721;23;20026;-73
2023/06/23 00:46:20;;;;;;;20.48;11.73;;;;;;;;;;2518161;23;20022;-74
2023/06/23 00:47:42;;;;;;;22.67;12.45;;;;;;;;;;2517715;23;20014;-73
2023/06/23 00:49:03;;;;;;;27.73;13.05;;;;;;;;;;2517391;23;20007;-73
2023/06/23 00:50:24;;;;;;;21.42;12.82;;;;;;;;;;2520411;23;20010;-73
2023/06/23 00:51:46;;;;;;;22.17;12.50;;;;;;;;;;2517367;23;20077;-74
2023/06/23 00:53:07;;;;;;;23.47;12.67;;;;;;;;;;2516447;23;20013;-74
2023/06/23 00:54:28;;;;;;;23.23;12.20;;;;;;;;;;2513195;23;20711;-74
2023/06/23 00:55:49;;;;;;;22.52;13.70;;;;;;;;;;2515230;23;20010;-73
2023/06/23 00:57:10;;;;;;;26.20;13.88;;;;;;;;;;2518619;23;20400;-73
2023/06/23 00:58:35;;;;;;;26.73;14.65;;;;;;;;;;2515201;23;20060;-74
2023/06/23 00:59:56;;;;;;;24.55;14.10;;;;;;;;;;2518050;23;20010;-73
2023/06/23 01:01:17;;;;;;;41.63;17.13;;;;;;;;;;2516459;23;20010;-76
2023/06/23 01:11:52;;;;;;;;;;;;;;;;;;;;;
2023/06/23 01:16:12;;;;;;;;;;;;;;;;;;;;;
2023/06/23 01:20:05;;;;;;;;;;;;;;;;;;;;;
2023/06/23 01:21:51;;;;;;;30.75;14.77;;;;;;;;;;2436848;24;20396;-77
2023/06/23 01:23:39;;;;;;;33.75;16.35;;;;;;;;;;2438597;24;20044;-77
2023/06/23 01:27:50;;;;;;;;;;;;;;;;;;;;;
2023/06/23 01:29:20;;;;;;;;;;;;;;;;;;2442243;24;20020;-77
2023/06/23 01:31:05;;;;;;;38.50;18.05;;;;;;;;;;2435685;24;20330;-77
2023/06/23 01:32:55;;;;;;;;;;;;;;;;;;;;;
2023/06/23 01:36:59;;;;;;;73.78;25.98;;;;;;;;;;2438324;24;20435;-77
2023/06/23 01:38:42;;;;;;;32.55;16.02;;;;;;;;;;2447646;24;20025;-77
2023/06/23 01:40:43;;;;;;;37.78;18.38;;;;;;;;;;2470492;23;20012;-77
2023/06/23 01:49:22;;;;;;;35.40;18.65;;;;;;;;;;2449918;24;20017;-78
2023/06/23 01:57:17;;;;;;;38.85;18.80;;;;;;;;;;2483183;23;20012;-77
2023/06/23 01:59:21;;;;;;;34.97;19.35;;;;;;;;;;2519799;23;20018;-77
2023/06/23 02:01:01;;;;;;;38.13;19.27;;;;;;;;;;2505210;23;20464;-75
2023/06/23 02:06:38;;;;;;;34.15;19.35;;;;;;;;;;2484140;23;20011;-74
2023/06/23 02:10:31;;;;;;;32.92;17.60;;;;;;;;;;2495014;23;20008;-75
2023/06/23 02:12:19;;;;;;;31.60;17.25;;;;;;;;;;2497193;23;20448;-74
2023/06/23 02:15:58;;;;;;;37.08;18.67;;;;;;;;;;2490651;23;20437;-74
2023/06/23 02:19:45;;;;;;;31.50;18.25;;;;;;;;;;2520799;23;20014;-73
2023/06/23 02:21:29;;;;;;;31.60;19.02;;;;;;;;;;2507904;23;20011;-74
2023/06/23 02:25:20;;;;;;;33.58;18.67;;;;;;;;;;2500199;23;20013;-74
2023/06/23 02:34:46;;;;;;;44.22;21.63;;;;;;;;;;2493849;23;20357;-79
2023/06/23 02:36:37;;;;;;;44.70;20.77;;;;;;;;;;2479614;23;20118;-74
2023/06/23 02:38:12;;;;;;;37.35;19.08;;;;;;;;;;2462250;23;20209;-74
2023/06/23 02:39:58;;;;;;;48.90;21.65;;;;;;;;;;2497509;23;20453;-76
2023/06/23 02:41:47;;;;;;;;;;;;;;;;;;;;;
2023/06/23 02:43:18;;;;;;;40.72;21.00;;;;;;;;;;2518355;23;20011;-75
2023/06/23 02:44:56;;;;;;;;;;;;;;;;;;;;;
2023/06/23 02:46:38;;;;;;;47.38;21.15;;;;;;;;;;2514474;23;20018;-75
2023/06/23 02:48:11;;;;;;;41.33;20.17;;;;;;;;;;2492785;23;20018;-75
2023/06/23 02:49:43;;;;;;;33.58;18.98;;;;;;;;;;2506934;23;20353;-75
2023/06/23 02:51:22;;;;;;;;;;;;;;;;;;;;;
2023/06/23 02:53:16;;;;;;;39.20;21.48;;;;;;;;;;2519541;23;20010;-75
2023/06/23 02:54:55;;;;;;;33.10;19.83;;;;;;;;;;2507916;23;20019;-74
2023/06/23 03:00:11;;;;;;;;;;;;;;;;;;;;;
2023/06/23 03:01:52;;;;;;;40.00;21.73;;;;;;;;;;2517191;23;20339;-76
2023/06/23 03:05:16;;;;;;;46.55;22.88;;;;;;;;;;2517744;23;20011;-75
2023/06/23 03:06:56;;;;;;;40.30;22.15;;;;;;;;;;2507377;23;20203;-75
2023/06/23 03:08:31;;;;;;;62.65;28.15;;;;;;;;;;2469768;23;20103;-75
2023/06/23 03:10:16;;;;;;;41.78;23.60;;;;;;;;;;2518851;23;20022;-75
2023/06/23 03:11:47;;;;;;;48.40;23.50;;;;;;;;;;2516752;23;20065;-75
2023/06/23 03:13:34;;;;;;;48.30;25.77;;;;;;;;;;2501399;23;20018;-75
2023/06/23 03:15:04;;;;;;;47.67;23.45;;;;;;;;;;2518567;23;20039;-74
2023/06/23 03:16:38;;;;;;;47.38;24.33;;;;;;;;;;2506967;23;20019;-75
2023/06/23 03:18:14;;;;;;;72.03;30.52;;;;;;;;;;2497312;23;20010;-74
2023/06/23 03:22:12;;;;;;;53.42;25.52;;;;;;;;;;2449566;24;20009;-75
2023/06/23 03:23:49;;;;;;;42.17;22.92;;;;;;;;;;2473323;23;20105;-74
2023/06/23 03:25:20;;;;;;;45.58;24.15;;;;;;;;;;2460971;24;20024;-74
2023/06/23 03:26:47;;;;;;;54.50;26.52;;;;;;;;;;2473040;23;20546;-74
2023/06/23 03:28:11;;;;;;;71.00;31.50;;;;;;;;;;2492408;23;20022;-74
2023/06/23 03:29:36;;;;;;;48.63;26.15;;;;;;;;;;2515331;23;20050;-74
2023/06/23 03:31:17;;;;;;;44.10;24.73;;;;;;;;;;2497550;23;20024;-74
2023/06/23 03:32:53;;;;;;;56.80;26.35;;;;;;;;;;2506567;23;20015;-75
2023/06/23 03:34:18;;;;;;;51.30;25.95;;;;;;;;;;2507239;23;20046;-74
2023/06/23 03:35:55;;;;;;;51.10;26.17;;;;;;;;;;2505053;23;20364;-74
2023/06/23 03:37:29;;;;;;;53.80;27.52;;;;;;;;;;2506456;23;20019;-75
2023/06/23 03:39:01;;;;;;;52.90;26.23;;;;;;;;;;2479804;23;20357;-74
2023/06/23 03:40:29;;;;;;;54.97;26.35;;;;;;;;;;2498000;23;20014;-75
2023/06/23 03:42:03;;;;;;;;;;;;;;;;;;;;;
2023/06/23 03:43:36;;;;;;;49.15;26.88;;;;;;;;;;2518766;23;20073;-75
2023/06/23 03:44:59;;;;;;;50.78;27.27;;;;;;;;;;2505934;23;20078;-75
2023/06/23 03:46:35;;;;;;;49.38;26.65;;;;;;;;;;2504873;23;20014;-75
2023/06/23 03:48:24;;;;;;;58.35;29.67;;;;;;;;;;2506645;23;20019;-75
2023/06/23 03:49:51;;;;;;;50.13;26.20;;;;;;;;;;2521231;23;20048;-74
2023/06/23 03:51:28;;;;;;;57.13;28.75;;;;;;;;;;2507832;23;20019;-74
2023/06/23 03:53:00;;;;;;;57.65;29.42;;;;;;;;;;2506778;23;20376;-75
2023/06/23 03:54:27;;;;;;;57.80;27.17;;;;;;;;;;2518012;23;20014;-75
2023/06/23 03:56:07;;;;;;;62.97;27.58;;;;;;;;;;2510282;23;20804;-74
2023/06/23 03:57:33;;;;;;;61.40;28.55;;;;;;;;;;2500829;23;20086;-74
2023/06/23 03:58:58;;;;;;;54.42;29.10;;;;;;;;;;2513931;23;20030;-74
2023/06/23 04:00:25;;;;;;;57.22;28.23;;;;;;;;;;2508058;23;20007;-74
2023/06/23 04:01:56;;;;;;;59.35;29.90;;;;;;;;;;2516574;23;20021;-75
2023/06/23 04:05:17;;;;;;;52.58;28.05;;;;;;;;;;2521788;23;20013;-73
2023/06/23 04:06:50;;;;;;;56.25;28.40;;;;;;;;;;2510099;23;20018;-75
2023/06/23 04:08:27;;;;;;;50.28;27.92;;;;;;;;;;2508397;23;20106;-74
2023/06/23 04:10:07;;;;;;;56.95;27.30;;;;;;;;;;2518662;23;20456;-73
2023/06/23 04:11:33;;;;;;;55.85;27.63;;;;;;;;;;2511066;23;20014;-74
2023/06/23 04:13:03;;;;;;;54.60;28.45;;;;;;;;;;2497579;23;20011;-74
2023/06/23 04:14:30;;;;;;;68.75;31.13;;;;;;;;;;2495593;23;20026;-74
2023/06/23 04:16:02;;;;;;;60.78;28.80;;;;;;;;;;2506552;23;20011;-74
2023/06/23 04:17:26;;;;;;;60.70;28.45;;;;;;;;;;2497706;23;20015;-75
2023/06/23 04:18:58;;;;;;;65.07;33.10;;;;;;;;;;2485023;23;20438;-74
2023/06/23 04:20:46;;;;;;;57.22;27.67;;;;;;;;;;2506851;23;20018;-74
2023/06/23 04:22:18;;;;;;;56.63;28.92;;;;;;;;;;2511179;23;20007;-75
2023/06/23 04:23:41;;;;;;;;;;;;;;;;;;2497957;23;20498;-75
2023/06/23 04:25:08;;;;;;;61.53;27.80;;;;;;;;;;2505032;23;19941;-75
2023/06/23 04:27:00;;;;;;;57.92;28.45;;;;;;;;;;2495671;23;20381;-74
2023/06/23 04:28:28;;;;;;;65.38;28.75;;;;;;;;;;2508071;23;20007;-74
2023/06/23 04:30:01;;;;;;;58.30;27.95;;;;;;;;;;2498324;23;20011;-75
2023/06/23 04:31:37;;;;;;;60.38;29.70;;;;;;;;;;2508704;23;20007;-74
2023/06/23 04:33:05;;;;;;;62.00;29.88;;;;;;;;;;2498139;23;20353;-74
2023/06/23 04:34:32;;;;;;;60.78;30.98;;;;;;;;;;2519356;23;20014;-78
2023/06/23 04:35:59;;;;;;;60.67;30.42;;;;;;;;;;2500958;23;20015;-78
2023/06/23 04:37:26;;;;;;;64.43;29.35;;;;;;;;;;2506164;23;20015;-78
2023/06/23 04:39:16;;;;;;;70.35;31.70;;;;;;;;;;2506031;23;20017;-78
2023/06/23 04:40:55;;;;;;;64.82;30.75;;;;;;;;;;2495929;23;20011;-78
2023/06/23 04:42:21;;;;;;;65.22;29.65;;;;;;;;;;2519022;23;20010;-79
2023/06/23 04:43:52;;;;;;;60.53;28.75;;;;;;;;;;2498771;23;20014;-79
2023/06/23 04:45:24;;;;;;;61.90;27.70;;;;;;;;;;2496641;23;20015;-80
2023/06/23 04:46:47;;;;;;;65.80;30.35;;;;;;;;;;2502188;23;20010;-79
2023/06/23 04:48:32;;;;;;;74.90;32.35;;;;;;;;;;2496768;23;20019;-79
2023/06/23 04:49:56;;;;;;;59.20;29.95;;;;;;;;;;2494856;23;20023;-79
2023/06/23 04:51:28;;;;;;;71.75;31.35;;;;;;;;;;2492441;23;20018;-79
2023/06/23 04:52:52;;;;;;;62.85;30.70;;;;;;;;;;2507330;23;20015;-79
2023/06/23 04:54:45;;;;;;;65.47;30.50;;;;;;;;;;2485655;23;20011;-79
2023/06/23 04:58:15;;;;;;;63.30;29.23;;;;;;;;;;2498248;23;20015;-79
2023/06/23 04:59:41;;;;;;;66.85;31.50;;;;;;;;;;2491339;23;20054;-79
2023/06/23 05:01:12;;;;;;;65.50;30.58;;;;;;;;;;2515532;23;20073;-78
2023/06/23 05:02:50;;;;;;;63.85;30.58;;;;;;;;;;2492144;23;20444;-79
2023/06/23 05:04:14;;;;;;;65.07;30.40;;;;;;;;;;2507450;23;20011;-79
2023/06/23 05:05:36;;;;;;;70.50;31.20;;;;;;;;;;2496126;23;20015;-78
2023/06/23 05:07:00;;;;;;;69.18;31.25;;;;;;;;;;2502997;23;20626;-78
2023/06/23 05:08:36;;;;;;;68.05;31.38;;;;;;;;;;2494331;23;20365;-78
2023/06/23 05:10:05;;;;;;;65.38;30.52;;;;;;;;;;2469557;23;20413;-79
2023/06/23 05:11:31;;;;;;;69.57;31.08;;;;;;;;;;2492430;23;20039;-79
2023/06/23 05:12:58;;;;;;;62.78;29.05;;;;;;;;;;2492883;23;20471;-78
2023/06/23 05:14:25;;;;;;;68.82;31.23;;;;;;;;;;2492069;23;20456;-78
2023/06/23 05:15:49;;;;;;;67.63;30.33;;;;;;;;;;2493786;23;20019;-78
2023/06/23 05:17:23;;;;;;;62.58;30.23;;;;;;;;;;2490775;23;20414;-79
2023/06/23 05:18:55;;;;;;;73.60;32.78;;;;;;;;;;2493789;23;20015;-79
2023/06/23 05:20:48;;;;;;;76.32;34.03;;;;;;;;;;2493079;23;20354;-79
2023/06/23 05:22:14;;;;;;;71.97;31.05;;;;;;;;;;2498242;23;20350;-79
2023/06/23 05:23:50;;;;;;;62.95;29.83;;;;;;;;;;2490666;23;20425;-79
2023/06/23 05:25:23;;;;;;;64.97;29.20;;;;;;;;;;2495260;23;20011;-79
2023/06/23 05:26:47;;;;;;;70.40;31.85;;;;;;;;;;2493246;23;20445;-79
2023/06/23 05:28:13;;;;;;;63.88;29.98;;;;;;;;;;2493014;23;20628;-79
2023/06/23 05:29:39;;;;;;;66.45;28.63;;;;;;;;;;2477683;23;20015;-78
2023/06/23 05:31:17;;;;;;;68.13;31.52;;;;;;;;;;2494035;23;20019;-79
2023/06/23 05:32:42;;;;;;;65.68;31.33;;;;;;;;;;2503618;23;20471;-79
2023/06/23 05:34:12;;;;;;;69.85;30.38;;;;;;;;;;2494496;23;20011;-79
2023/06/23 05:35:38;;;;;;;69.15;29.52;;;;;;;;;;2494947;23;20353;-79
2023/06/23 05:37:02;;;;;;;65.03;30.42;;;;;;;;;;2490964;23;20015;-79
2023/06/23 05:40:12;;;;;;;71.20;32.13;;;;;;;;;;2505054;23;20015;-79
2023/06/23 05:41:41;;;;;;;65.45;30.40;;;;;;;;;;2496808;23;20015;-78
2023/06/23 05:43:06;;;;;;;61.75;30.95;;;;;;;;;;2494399;23;20449;-78
2023/06/23 05:44:33;;;;;;;68.63;29.17;;;;;;;;;;2505797;23;20011;-77
2023/06/23 05:46:11;;;;;;;66.22;29.58;;;;;;;;;;2496922;23;20453;-79
2023/06/23 05:47:54;;;;;;;62.75;28.50;;;;;;;;;;2498137;23;20042;-78
2023/06/23 05:49:40;;;;;;;71.63;31.88;;;;;;;;;;2495671;23;20027;-79
2023/06/23 05:58:11;;;;;;;72.60;31.77;;;;;;;;;;2458463;23;20028;-80
2023/06/23 06:00:06;;;;;;;74.65;31.77;;;;;;;;;;2481902;23;20056;-81
2023/06/23 06:01:33;;;;;;;82.43;33.30;;;;;;;;;;2479663;23;20049;-79
2023/06/23 06:03:07;;;;;;;59.90;28.52;;;;;;;;;;2460857;24;20016;-79
2023/06/23 06:04:32;;;;;;;73.43;32.33;;;;;;;;;;2469325;23;20023;-79
2023/06/23 06:07:53;;;;;;;62.38;29.15;;;;;;;;;;2472461;23;20458;-80
2023/06/23 06:09:28;;;;;;;69.28;30.27;;;;;;;;;;2471611;23;20404;-80
2023/06/23 06:10:59;;;;;;;77.95;34.13;;;;;;;;;;2474298;23;20024;-80
2023/06/23 06:12:21;;;;;;;66.05;29.00;;;;;;;;;;2493675;23;20457;-80
2023/06/23 06:13:53;;;;;;;54.42;26.70;;;;;;;;;;2503510;23;20010;-80
2023/06/23 06:15:18;;;;;;;64.35;28.30;;;;;;;;;;2497400;23;20450;-81
2023/06/23 06:16:41;;;;;;;63.55;30.23;;;;;;;;;;2491943;23;20476;-79
2023/06/23 06:18:16;;;;;;;62.65;29.48;;;;;;;;;;2493567;23;20020;-80
2023/06/23 06:21:30;;;;;;;63.83;29.95;;;;;;;;;;2496779;23;20014;-79
2023/06/23 06:22:55;;;;;;;54.97;28.48;;;;;;;;;;2495306;23;20015;-79
2023/06/23 06:24:28;;;;;;;60.70;29.55;;;;;;;;;;2494139;23;20019;-79
2023/06/23 06:25:53;;;;;;;57.45;28.23;;;;;;;;;;2495318;23;20373;-80
2023/06/23 06:27:28;;;;;;;60.90;28.63;;;;;;;;;;2493400;23;20382;-79
2023/06/23 06:29:08;;;;;;;59.92;28.00;;;;;;;;;;2496835;23;20275;-79
2023/06/23 06:30:29;;;;;;;57.97;28.17;;;;;;;;;;2482359;23;20027;-78
2023/06/23 06:36:06;;;;;;;61.55;28.92;;;;;;;;;;2507031;23;20011;-79
2023/06/23 06:37:47;;;;;;;61.17;28.08;;;;;;;;;;2495245;23;20019;-78
2023/06/23 06:39:10;;;;;;;52.95;27.55;;;;;;;;;;2496223;23;20018;-80
2023/06/23 06:40:49;;;;;;;72.63;32.53;;;;;;;;;;2498220;23;20025;-76
2023/06/23 06:54:48;;;;;;;60.55;29.75;;;;;;;;;;2505923;23;20045;-79
2023/06/23 06:57:59;;;;;;;54.72;29.90;;;;;;;;;;2517777;23;20021;-79
2023/06/23 06:59:20;;;;;;;56.53;30.15;;;;;;;;;;2521804;23;19998;-78
2023/06/23 07:00:41;;;;;;;59.33;31.40;;;;;;;;;;2518313;23;20019;-82
2023/06/23 07:02:03;;;;;;;61.10;32.03;;;;;;;;;;2520756;23;20022;-80
2023/06/23 07:03:24;;;;;;;56.10;30.48;;;;;;;;;;2518072;23;20021;-81
2023/06/23 07:05:14;;;;;;;59.70;29.98;;;;;;;;;;2529889;23;20010;-81
2023/06/23 07:10:59;;;;;;;66.38;33.08;;;;;;;;;;2483442;23;20015;-81
2023/06/23 07:12:19;;;;;;;63.05;30.10;;;;;;;;;;2507076;23;20014;-79
2023/06/23 07:21:47;;;;;;;51.33;26.52;;;;;;;;;;2483370;23;20008;-77
2023/06/23 07:27:37;;;;;;;51.13;26.33;;;;;;;;;;2509905;23;20006;-81
2023/06/23 07:35:48;;;;;;;52.60;27.52;;;;;;;;;;2495490;23;20012;-79
2023/06/23 07:37:40;;;;;;;51.95;27.20;;;;;;;;;;2461506;24;20009;-79
2023/06/23 07:41:03;;;;;;;46.17;23.42;;;;;;;;;;2487640;23;20437;-81
2023/06/23 07:42:27;;;;;;;44.83;24.00;;;;;;;;;;2495978;23;20015;-85
2023/06/23 07:43:53;;;;;;;47.97;26.17;;;;;;;;;;2497639;23;20009;-80
2023/06/23 07:45:53;;;;;;;44.33;24.08;;;;;;;;;;2504738;23;20022;-81
2023/06/23 07:47:25;;;;;;;42.95;23.75;;;;;;;;;;2521388;23;20013;-81
2023/06/23 07:50:55;;;;;;;44.20;22.52;;;;;;;;;;2532730;23;20021;-83
2023/06/23 07:52:16;;;;;;;40.33;22.35;;;;;;;;;;2533518;23;20018;-82
2023/06/23 07:53:37;;;;;;;39.95;21.80;;;;;;;;;;2531807;23;20006;-85
2023/06/23 07:54:58;;;;;;;39.47;22.75;;;;;;;;;;2520706;23;20348;-86
2023/06/23 07:56:18;;;;;;;41.00;22.45;;;;;;;;;;2516223;23;20514;-83
2023/06/23 07:57:40;;;;;;;41.72;21.80;;;;;;;;;;2517807;23;20010;-83
2023/06/23 07:59:01;;;;;;;42.92;23.17;;;;;;;;;;2515780;23;20017;-80
2023/06/23 08:00:23;;;;;;;43.00;22.75;;;;;;;;;;2525155;23;20006;-78
2023/06/23 08:01:44;;;;;;;40.67;22.60;;;;;;;;;;2532054;23;20014;-77
2023/06/23 08:03:05;;;;;;;38.33;21.08;;;;;;;;;;2533399;23;20463;-78
2023/06/23 08:09:04;;;;;;;42.00;23.20;;;;;;;;;;2441212;24;20014;-79
2023/06/23 08:10:25;;;;;;;36.15;21.38;;;;;;;;;;2437560;24;20018;-78
2023/06/23 08:11:46;;;;;;;43.03;21.95;;;;;;;;;;2481337;23;20016;-78
2023/06/23 08:13:45;;;;;;;39.95;21.58;;;;;;;;;;2520451;23;20019;-76
2023/06/23 08:15:06;;;;;;;46.45;23.27;;;;;;;;;;2532890;23;20045;-77
2023/06/23 08:17:04;;;;;;;38.55;22.25;;;;;;;;;;2520605;23;20018;-80
2023/06/23 08:18:27;;;;;;;39.15;21.48;;;;;;;;;;2507749;23;20019;-82
2023/06/23 08:21:48;;;;;;;39.45;20.35;;;;;;;;;;2532609;23;20006;-80
2023/06/23 08:27:15;;;;;;;34.22;19.23;;;;;;;;;;2496545;23;20004;-79
2023/06/23 08:46:40;;;;;;;32.47;19.13;;;;;;;;;;2474830;23;20000;-77
2023/06/23 08:52:14;;;;;;;34.75;19.55;;;;;;;;;;2440491;23;20018;-82
2023/06/23 08:56:10;;;;;;;33.13;18.30;;;;;;;;;;2437318;24;20102;-81
2023/06/23 09:02:12;;;;;;;25.13;15.93;;;;;;;;;;2472963;23;20020;-81
2023/06/23 09:04:07;;;;;;;24.95;15.38;;;;;;;;;;2471875;23;20019;-80
2023/06/23 09:23:00;;;;;;;25.30;14.90;;;;;;;;;;2453482;24;20027;-82
2023/06/23 09:24:21;;;;;;;17.38;12.05;;;;;;;;;;2483834;23;20028;-80
2023/06/23 09:26:03;;;;;;;22.55;12.30;;;;;;;;;;2519055;23;20014;-80
2023/06/23 09:29:42;;;;;;;22.38;12.98;;;;;;;;;;2484779;23;20491;-81
2023/06/23 09:31:13;;;;;;;24.50;14.52;;;;;;;;;;2488836;23;20561;-80
2023/06/23 09:32:33;;;;;;;20.55;13.68;;;;;;;;;;2503550;23;20011;-79
2023/06/23 09:33:54;;;;;;;20.08;12.95;;;;;;;;;;2506170;23;20006;-79
2023/06/23 09:35:18;;;;;;;24.42;14.13;;;;;;;;;;2505519;23;20452;-87
2023/06/23 09:36:39;;;;;;;22.58;12.88;;;;;;;;;;2495392;23;20319;-84
2023/06/23 09:38:01;;;;;;;16.67;11.45;;;;;;;;;;2503935;23;20062;-84
2023/06/23 09:39:23;;;;;;;17.25;10.82;;;;;;;;;;2497506;23;20011;-80
2023/06/23 09:40:44;;;;;;;18.95;11.95;;;;;;;;;;2495822;23;20418;-79
2023/06/23 09:43:52;;;;;;;17.60;11.25;;;;;;;;;;2507093;23;20348;-79
2023/06/23 09:45:17;;;;;;;15.40;10.57;;;;;;;;;;2506114;23;20014;-80
2023/06/23 09:46:38;;;;;;;17.85;11.75;;;;;;;;;;2507066;23;20017;-80
2023/06/23 09:47:59;;;;;;;18.83;11.38;;;;;;;;;;2508111;23;20014;-80
2023/06/23 09:49:22;;;;;;;17.50;11.82;;;;;;;;;;2509172;23;20456;-80
2023/06/23 09:50:43;;;;;;;19.90;12.05;;;;;;;;;;2496962;23;20063;-79
2023/06/23 09:52:06;;;;;;;19.27;12.85;;;;;;;;;;2503297;23;20019;-79
2023/06/23 09:53:30;;;;;;;20.02;12.18;;;;;;;;;;2497145;23;20015;-79
2023/06/23 09:54:51;;;;;;;16.08;10.40;;;;;;;;;;2507024;23;20022;-79
2023/06/23 09:56:13;;;;;;;18.20;10.48;;;;;;;;;;2497369;23;20026;-79
2023/06/23 09:57:34;;;;;;;;;;;;;;;;;;2505330;23;20011;-79
2023/06/23 09:58:55;;;;;;;18.80;11.63;;;;;;;;;;2520185;23;19901;-79
2023/06/23 10:00:16;;;;;;;15.65;10.07;;;;;;;;;;2511690;23;20067;-79
2023/06/23 10:01:48;;;;;;;21.23;11.40;;;;;;;;;;2527673;23;20006;-79
2023/06/23 10:03:08;;;;;;;14.05;9.70;;;;;;;;;;2533336;23;20010;-79
2023/06/23 10:04:30;;;;;;;15.60;9.07;;;;;;;;;;2531479;23;20013;-78
2023/06/23 10:05:55;;;;;;;16.40;10.20;;;;;;;;;;2518417;23;20433;-79
2023/06/23 10:07:20;;;;;;;15.20;9.32;;;;;;;;;;2517144;23;20018;-77
2023/06/23 10:08:44;;;;;;;14.05;9.52;;;;;;;;;;2518558;23;20018;-78
2023/06/23 10:10:07;;;;;;;17.00;9.65;;;;;;;;;;2528649;23;20018;-77
2023/06/23 10:11:29;;;;;;;14.32;9.77;;;;;;;;;;2518218;23;20010;-77
2023/06/23 10:12:50;;;;;;;16.40;9.88;;;;;;;;;;2528230;23;20022;-77
2023/06/23 10:14:11;;;;;;;16.58;9.50;;;;;;;;;;2530749;23;20175;-77
2023/06/23 10:15:32;;;;;;;16.10;10.60;;;;;;;;;;2532271;23;20029;-77
2023/06/23 10:16:59;;;;;;;17.77;9.93;;;;;;;;;;2517626;23;20052;-77
2023/06/23 10:18:26;;;;;;;17.52;9.40;;;;;;;;;;2529597;23;20017;-78
2023/06/23 10:19:48;;;;;;;14.13;9.57;;;;;;;;;;2530824;23;20010;-77
2023/06/23 10:21:10;;;;;;;15.40;9.02;;;;;;;;;;2519705;23;20363;-77
2023/06/23 10:22:32;;;;;;;14.80;8.77;;;;;;;;;;2527441;23;20343;-76
2023/06/23 10:23:56;;;;;;;19.92;10.15;;;;;;;;;;2532052;23;20439;-76
2023/06/23 10:25:19;;;;;;;13.25;8.32;;;;;;;;;;2530485;23;20343;-76
2023/06/23 10:26:41;;;;;;;17.27;9.45;;;;;;;;;;2532627;23;20006;-76
2023/06/23 10:28:05;;;;;;;18.10;9.55;;;;;;;;;;2518181;23;20347;-76
2023/06/23 10:29:27;;;;;;;20.13;9.25;;;;;;;;;;2528463;23;20013;-75
2023/06/23 10:30:48;;;;;;;17.63;9.82;;;;;;;;;;2516939;23;20014;-76
2023/06/23 10:32:09;;;;;;;17.92;9.70;;;;;;;;;;2526768;23;20014;-77
2023/06/23 10:33:55;;;;;;;13.90;8.85;;;;;;;;;;2531387;23;20025;-77
2023/06/23 11:15:58;;;;;;;9.68;7.22;;;;;;;;;;2557465;23;20083;-77
2023/06/23 11:17:30;;;;;;;14.27;7.53;;;;;;;;;;2543751;23;20065;-78
2023/06/23 11:20:49;;;;;;;12.88;7.80;;;;;;;;;;2557232;23;19997;-78
2023/06/23 11:22:33;;;;;;;17.77;8.37;;;;;;;;;;2530784;23;20534;-78
2023/06/23 11:24:13;;;;;;;10.38;6.13;;;;;;;;;;2531391;23;20389;-77
2023/06/23 11:43:56;;;;;;;;;;;;;;;;;;;;;
2023/06/23 11:59:17;;;;;;;16.38;7.30;;;;;;;;;;2523581;23;20026;-79
2023/06/23 12:01:05;;;;;;;13.02;6.18;;;;;;;;;;2507902;23;20027;-79
2023/06/23 12:02:28;;;;;;;11.70;5.75;;;;;;;;;;2508948;23;20010;-78
2023/06/23 12:04:44;;;;;;;10.18;6.70;;;;;;;;;;2506255;23;20015;-78
2023/06/23 12:06:01;;;;;;;10.98;6.50;;;;;;;;;;2518195;23;20017;-80
2023/06/23 12:09:46;;;;;;;9.18;5.47;;;;;;;;;;2507181;23;19905;-78
2023/06/23 12:16:52;;;;;;;12.50;5.57;;;;;;;;;;2508468;23;20022;-80
2023/06/23 12:20:35;;;;;;;10.85;6.25;;;;;;;;;;2479803;23;20012;-79
2023/06/23 12:22:08;;;;;;;10.48;6.10;;;;;;;;;;2488722;23;20011;-78
2023/06/23 12:26:00;;;;;;;10.43;5.70;;;;;;;;;;2498456;23;20015;-80
2023/06/23 12:30:24;;;;;;;;;;;;;;;;;;;;;
2023/06/23 12:34:23;;;;;;;40.28;13.95;;;;;;;;;;2435835;24;20002;-79
2023/06/23 12:36:03;;;;;;;9.13;4.97;;;;;;;;;;2450460;24;20446;-79
2023/06/23 12:37:44;;;;;;;11.38;5.53;;;;;;;;;;2471059;24;20036;-78
2023/06/23 12:39:07;;;;;;;11.32;5.80;;;;;;;;;;2479424;23;20067;-77
2023/06/23 12:40:32;;;;;;;9.43;5.68;;;;;;;;;;2473745;23;20020;-79
2023/06/23 12:41:53;;;;;;;8.90;4.97;;;;;;;;;;2481676;23;20438;-76
2023/06/23 12:43:13;;;;;;;8.38;4.80;;;;;;;;;;2483636;23;20071;-75
2023/06/23 15:58:48;;;;;;;34.85;16.20;;;;;;;;;;2529371;23;20030;-94
2023/06/23 16:00:15;;;;;;;14.35;8.75;;;;;;;;;;2520621;23;20316;-95
2023/06/23 16:01:36;;;;;;;12.80;8.02;;;;;;;;;;2530979;23;20006;-94
2023/06/23 16:02:58;;;;;;;15.98;9.15;;;;;;;;;;2528405;23;20010;-94
2023/06/23 16:04:20;;;;;;;15.90;8.82;;;;;;;;;;2529273;23;20021;-95
2023/06/23 16:05:41;;;;;;;16.02;9.07;;;;;;;;;;2494253;23;20090;-95
2023/06/23 16:07:09;;;;;;;15.60;7.95;;;;;;;;;;2530028;23;20021;-94
2023/06/23 16:08:31;;;;;;;11.45;7.55;;;;;;;;;;2536238;23;20006;-95
2023/06/23 16:09:56;;;;;;;9.65;6.63;;;;;;;;;;2533872;23;20009;-94
2023/06/23 16:11:17;;;;;;;14.48;8.32;;;;;;;;;;2531327;23;20399;-94
2023/06/23 16:12:43;;;;;;;11.47;7.83;;;;;;;;;;2530999;23;20025;-93
2023/06/23 16:14:07;;;;;;;17.58;8.45;;;;;;;;;;2530316;23;20381;-90
2023/06/23 16:15:28;;;;;;;23.55;10.20;;;;;;;;;;2525438;23;20014;-90
2023/06/23 16:16:52;;;;;;;9.13;6.80;;;;;;;;;;2531395;23;20017;-89
2023/06/23 16:18:18;;;;;;;22.38;9.70;;;;;;;;;;2530876;23;20014;-89
2023/06/23 16:19:40;;;;;;;20.48;10.30;;;;;;;;;;2524530;23;20014;-89
2023/06/23 16:21:01;;;;;;;16.88;9.30;;;;;;;;;;2529413;23;20006;-90
2023/06/23 16:22:22;;;;;;;18.40;10.15;;;;;;;;;;2528292;23;20076;-90
2023/06/23 16:23:45;;;;;;;11.75;8.02;;;;;;;;;;2527491;23;20010;-90
2023/06/23 16:25:07;;;;;;;23.35;13.20;;;;;;;;;;2527542;23;20010;-90
2023/06/23 16:26:28;;;;;;;16.55;9.63;;;;;;;;;;2526282;23;20462;-90
2023/06/23 16:27:49;;;;;;;12.90;8.35;;;;;;;;;;2528813;23;20128;-91
2023/06/23 16:29:15;;;;;;;12.35;8.38;;;;;;;;;;2534029;23;20014;-91
2023/06/23 16:30:36;;;;;;;14.13;9.05;;;;;;;;;;2527585;23;20073;-91
2023/06/23 16:31:57;;;;;;;20.85;10.65;;;;;;;;;;2528217;23;20017;-91
2023/06/23 16:33:18;;;;;;;14.80;9.57;;;;;;;;;;2527808;23;20348;-90
2023/06/23 16:34:39;;;;;;;13.55;8.93;;;;;;;;;;2527546;23;20014;-91
2023/06/23 16:36:07;;;;;;;13.82;8.88;;;;;;;;;;2530989;23;20541;-90
2023/06/23 16:37:28;;;;;;;19.83;10.23;;;;;;;;;;2527131;23;20017;-91
2023/06/23 16:38:49;;;;;;;13.80;8.85;;;;;;;;;;2527064;23;20057;-91